TimeCDT,TemperatureF,Dew PointF,Humidity,Sea Level PressureIn,VisibilityMPH,Wind Direction,Wind SpeedMPH,Gust SpeedMPH,PrecipitationIn,Events,Conditions,WindDirDegrees,DateUTC
12:52 AM,48.0,37.9,68,30.02,10.0,North,3.5,-,N/A,,Clear,360,2013-05-06 05:52:00
1:52 AM,46.9,39.0,74,30.02,10.0,Calm,Calm,-,N/A,,Mostly Cloudy,0,2013-05-06 06:52:00
2:52 AM,50.0,39.0,66,30.01,10.0,Calm,Calm,-,N/A,,Scattered Clouds,0,2013-05-06 07:52:00
3:52 AM,48.9,39.9,71,30.00,10.0,Calm,Calm,-,N/A,,Overcast,0,2013-05-06 08:52:00
4:52 AM,50.0,39.9,68,30.00,10.0,Calm,Calm,-,N/A,,Overcast,0,2013-05-06 09:52:00
5:52 AM,50.0,39.9,68,30.01,10.0,NNW,4.6,-,N/A,,Overcast,330,2013-05-06 10:52:00
6:52 AM,51.1,39.9,66,30.03,10.0,North,4.6,-,N/A,,Mostly Cloudy,10,2013-05-06 11:52:00
7:52 AM,52.0,39.9,63,30.05,10.0,NNE,4.6,-,N/A,,Overcast,30,2013-05-06 12:52:00
8:52 AM,57.9,39.0,49,30.05,10.0,NNE,5.8,-,N/A,,Overcast,20,2013-05-06 13:52:00
9:52 AM,60.1,39.0,46,30.05,10.0,NE,5.8,-,N/A,,Mostly Cloudy,50,2013-05-06 14:52:00
10:52 AM,61.0,39.9,46,30.05,10.0,Variable,5.8,-,N/A,,Overcast,0,2013-05-06 15:52:00
11:52 AM,64.0,43.0,46,30.04,10.0,NE,5.8,-,N/A,,Clear,40,2013-05-06 16:52:00
12:52 PM,62.1,44.1,52,30.03,10.0,NE,8.1,-,N/A,,Clear,50,2013-05-06 17:52:00
1:52 PM,62.1,39.9,44,30.02,10.0,NNE,11.5,-,N/A,,Clear,20,2013-05-06 18:52:00
2:52 PM,64.0,37.9,38,30.01,10.0,NNE,9.2,-,N/A,,Clear,20,2013-05-06 19:52:00
3:52 PM,64.9,37.9,37,30.00,10.0,NE,10.4,16.1,N/A,,Clear,40,2013-05-06 20:52:00
4:52 PM,64.0,37.9,38,29.99,10.0,North,8.1,-,N/A,,Clear,10,2013-05-06 21:52:00
5:52 PM,57.0,37.9,49,30.00,10.0,NE,6.9,-,N/A,,Clear,50,2013-05-06 22:52:00
6:52 PM,53.1,39.0,59,30.01,10.0,NNE,4.6,-,N/A,,Clear,20,2013-05-06 23:52:00
7:52 PM,52.0,37.0,57,30.01,10.0,North,4.6,-,N/A,,Clear,360,2013-05-07 00:52:00
8:52 PM,52.0,36.0,54,30.02,10.0,North,4.6,-,N/A,,Clear,10,2013-05-07 01:52:00
9:52 PM,52.0,35.1,53,30.03,10.0,North,4.6,-,N/A,,Clear,10,2013-05-07 02:52:00
10:52 PM,53.1,35.1,50,30.01,10.0,North,3.5,-,N/A,,Clear,350,2013-05-07 03:52:00
11:52 PM,48.0,37.0,66,30.02,10.0,Calm,Calm,-,N/A,,Clear,0,2013-05-07 04:52:00